createdAt,value
2019-02-03T00:01:32.495Z,37.83
2019-02-03T00:04:01.036Z,42.10
2019-02-03T00:06:29.576Z,34.10
2019-02-03T00:08:58.451Z,43.63
2019-02-03T00:11:26.937Z,39.77
2019-02-03T00:13:55.424Z,53.10
2019-02-03T00:16:23.917Z,51.60
2019-02-03T00:18:52.388Z,55.77
2019-02-03T00:21:20.857Z,53.27
2019-02-03T00:23:49.623Z,45.30
2019-02-03T00:26:19.296Z,38.80
2019-02-03T00:28:47.807Z,52.70
2019-02-03T00:31:16.308Z,61.17
2019-02-03T00:33:44.771Z,57.27
2019-02-03T00:36:13.246Z,59.87
2019-02-03T00:38:41.831Z,54.00
2019-02-03T00:41:10.330Z,72.67
2019-02-03T00:43:38.803Z,66.80
2019-02-03T00:46:07.292Z,70.00
2019-02-03T00:48:35.769Z,62.87
2019-02-03T00:51:04.775Z,72.00
2019-02-03T00:53:33.273Z,69.33
2019-02-03T00:56:01.810Z,49.93
2019-02-03T00:58:30.269Z,68.97
2019-02-03T01:00:58.771Z,57.60
2019-02-03T01:03:27.316Z,63.53
2019-02-03T01:05:55.855Z,61.50
2019-02-03T01:08:24.358Z,50.23
2019-02-03T01:10:52.908Z,61.90
2019-02-03T01:13:21.371Z,56.07
2019-02-03T01:15:49.883Z,56.07
2019-02-03T01:18:18.348Z,62.33
2019-02-03T01:20:46.995Z,56.43
2019-02-03T01:23:15.491Z,49.70
2019-02-03T01:25:43.974Z,57.80
2019-02-03T01:28:12.855Z,46.00
2019-02-03T01:30:41.349Z,47.47
2019-02-03T01:33:09.812Z,64.97
2019-02-03T01:35:38.456Z,61.40
2019-02-03T01:38:07.008Z,57.37
2019-02-03T01:40:35.479Z,50.23
2019-02-03T01:43:03.949Z,48.83
2019-02-03T01:45:32.460Z,57.57
2019-02-03T01:48:00.918Z,57.97
2019-02-03T01:50:29.387Z,58.37
2019-02-03T01:52:57.907Z,63.13
2019-02-03T01:55:27.104Z,53.17
2019-02-03T01:57:55.654Z,61.00
2019-02-03T02:00:26.769Z,56.03
2019-02-03T02:02:55.692Z,67.30
2019-02-03T02:05:24.237Z,80.57
2019-02-03T02:07:52.742Z,67.57
2019-02-03T02:10:26.397Z,67.20
2019-02-03T02:12:54.948Z,68.27
2019-02-03T02:15:23.520Z,86.60
2019-02-03T02:17:52.426Z,55.10
2019-02-03T02:20:23.481Z,59.03
2019-02-03T02:22:52.045Z,72.37
2019-02-03T02:25:20.572Z,74.30
2019-02-03T02:27:49.118Z,41.67
2019-02-03T02:30:22.065Z,73.53
2019-02-03T02:32:50.615Z,80.93
2019-02-03T02:35:19.130Z,78.53
2019-02-03T02:37:47.720Z,75.23
2019-02-03T02:40:21.242Z,80.50
2019-02-03T02:42:49.695Z,76.07
2019-02-03T02:45:18.342Z,77.83
2019-02-03T02:47:47.008Z,69.63
2019-02-03T02:50:18.650Z,83.03
2019-02-03T02:52:47.160Z,83.90
2019-02-03T02:55:15.700Z,80.90
2019-02-03T02:57:44.234Z,77.43
2019-02-03T03:00:17.389Z,65.17
2019-02-03T03:02:46.376Z,70.87
2019-02-03T03:05:15.171Z,75.93
2019-02-03T03:07:43.745Z,90.73
2019-02-03T03:10:14.851Z,91.63
2019-02-03T03:12:43.398Z,77.87
2019-02-03T03:15:14.525Z,77.90
2019-02-03T03:17:42.979Z,74.43
2019-02-03T03:20:14.098Z,86.83
2019-02-03T03:22:42.676Z,81.87
2019-02-03T03:25:14.147Z,76.53
2019-02-03T03:27:42.597Z,72.03
2019-02-03T03:30:16.764Z,88.23
2019-02-03T03:32:45.519Z,70.60
2019-02-03T03:35:14.061Z,79.57
2019-02-03T03:37:43.455Z,72.53
2019-02-03T03:40:18.488Z,79.03
2019-02-03T03:42:47.007Z,56.83
2019-02-03T03:45:15.779Z,70.50
2019-02-03T03:47:44.252Z,65.23
2019-02-03T03:50:14.344Z,68.53
2019-02-03T03:52:42.849Z,62.40
2019-02-03T03:55:11.487Z,69.40
2019-02-03T03:57:39.901Z,67.13
2019-02-03T04:00:19.905Z,68.73
2019-02-03T04:02:48.736Z,65.37
2019-02-03T04:05:17.286Z,60.07
2019-02-03T04:07:45.836Z,62.50
2019-02-03T04:10:19.224Z,61.33
2019-02-03T04:12:47.682Z,54.90
2019-02-03T04:15:17.917Z,61.37
2019-02-03T04:17:46.399Z,53.57
2019-02-03T04:20:20.214Z,54.53
2019-02-03T04:22:48.709Z,49.40
2019-02-03T04:25:17.177Z,63.90
2019-02-03T04:27:45.699Z,58.30
2019-02-03T04:30:17.584Z,58.30
2019-02-03T04:32:46.034Z,58.80
2019-02-03T04:35:15.554Z,57.03
2019-02-03T04:37:44.038Z,55.17
2019-02-03T04:40:14.951Z,54.93
2019-02-03T04:42:43.425Z,65.63
2019-02-03T04:45:14.149Z,47.57
2019-02-03T04:47:42.599Z,53.07
2019-02-03T04:50:13.757Z,44.77
2019-02-03T04:52:42.282Z,51.47
2019-02-03T04:55:13.492Z,49.83
2019-02-03T04:57:41.973Z,60.30
2019-02-03T05:00:22.176Z,52.97
2019-02-03T05:02:50.627Z,43.00
2019-02-03T05:05:19.095Z,49.23
2019-02-03T05:07:47.672Z,55.10
2019-02-03T05:10:16.467Z,44.50
2019-02-03T05:12:44.929Z,48.53
2019-02-03T05:15:15.971Z,51.03
2019-02-03T05:17:44.431Z,46.80
2019-02-03T05:20:18.017Z,51.03
2019-02-03T05:22:47.168Z,51.07
2019-02-03T05:25:15.699Z,49.00
2019-02-03T05:27:44.155Z,43.50
2019-02-03T05:30:21.575Z,50.57
2019-02-03T05:32:50.029Z,47.40
2019-02-03T05:35:18.959Z,50.83
2019-02-03T05:37:47.584Z,62.00
2019-02-03T05:40:16.773Z,46.50
2019-02-03T05:42:45.302Z,49.60
2019-02-03T05:45:18.773Z,52.77
2019-02-03T05:47:50.117Z,51.10
2019-02-03T05:50:19.564Z,53.90
2019-02-03T05:52:48.083Z,53.97
2019-02-03T05:55:18.427Z,59.53
2019-02-03T05:57:46.882Z,61.80
2019-02-03T06:00:30.785Z,58.73
2019-02-03T06:02:59.249Z,60.13
2019-02-03T06:05:27.695Z,59.67
2019-02-03T06:07:56.251Z,53.93
2019-02-03T06:10:24.840Z,57.73
2019-02-03T06:12:53.758Z,59.60
2019-02-03T06:15:22.389Z,72.57
2019-02-03T06:17:50.840Z,57.47
2019-02-03T06:20:20.906Z,53.93
2019-02-03T06:22:49.501Z,64.20
2019-02-03T06:25:18.127Z,65.03
2019-02-03T06:27:46.583Z,65.03
2019-02-03T06:30:27.460Z,54.10
2019-02-03T06:32:55.910Z,63.53
2019-02-03T06:35:24.375Z,64.37
2019-02-03T06:37:52.962Z,57.83
2019-02-03T06:40:21.932Z,70.57
2019-02-03T06:42:50.396Z,58.03
2019-02-03T06:45:35.771Z,56.70
2019-02-03T06:48:04.225Z,51.70
2019-02-03T06:50:32.692Z,53.10
2019-02-03T06:53:01.223Z,73.33
2019-02-03T06:55:29.696Z,54.93
2019-02-03T06:57:58.154Z,48.87
2019-02-03T07:00:26.660Z,51.27
2019-02-03T07:02:55.128Z,48.97
2019-02-03T07:05:23.588Z,45.80
2019-02-03T07:07:52.088Z,54.30
2019-02-03T07:10:20.548Z,55.50
2019-02-03T07:12:48.997Z,51.47
2019-02-03T07:15:17.556Z,57.97
2019-02-03T07:17:46.014Z,53.17
2019-02-03T07:20:16.126Z,48.13
2019-02-03T07:22:44.671Z,49.13
2019-02-03T07:25:13.272Z,48.87
2019-02-03T07:27:41.903Z,55.40
2019-02-03T07:30:19.068Z,53.30
2019-02-03T07:32:47.559Z,49.13
2019-02-03T07:35:16.138Z,53.07
2019-02-03T07:37:44.644Z,51.97
2019-02-03T07:40:21.881Z,54.23
2019-02-03T07:42:50.748Z,48.63
2019-02-03T07:45:19.219Z,57.10
2019-02-03T07:47:47.700Z,43.57
2019-02-03T07:50:17.194Z,48.53
2019-02-03T07:52:45.655Z,51.00
2019-02-03T07:55:14.957Z,38.23
2019-02-03T07:57:43.469Z,44.97
2019-02-03T08:00:16.541Z,42.07
2019-02-03T08:02:44.995Z,42.40
2019-02-03T08:05:13.581Z,37.00
2019-02-03T08:07:42.147Z,42.83
2019-02-03T08:10:24.625Z,49.53
2019-02-03T08:12:44.030Z,42.03
2019-02-03T08:15:17.452Z,38.37
2019-02-03T08:17:45.907Z,49.87
2019-02-03T08:20:26.473Z,60.90
2019-02-03T08:22:55.019Z,39.00
2019-02-03T08:25:23.541Z,43.53
2019-02-03T08:27:52.113Z,55.23
2019-02-03T08:30:23.739Z,42.90
2019-02-03T08:32:52.184Z,46.67
2019-02-03T08:35:20.699Z,52.00
2019-02-03T08:37:49.174Z,46.43
2019-02-03T08:40:22.509Z,44.73
2019-02-03T08:42:51.092Z,49.87
2019-02-03T08:45:24.771Z,47.20
2019-02-03T08:47:53.397Z,60.60
2019-02-03T08:50:23.148Z,44.27
2019-02-03T08:52:51.635Z,46.73
2019-02-03T08:55:20.128Z,49.20
2019-02-03T08:57:48.619Z,42.70
2019-02-03T09:00:25.627Z,42.63
2019-02-03T09:02:54.145Z,51.30
2019-02-03T09:05:22.615Z,46.10
2019-02-03T09:07:51.234Z,45.67
2019-02-03T09:10:24.042Z,47.53
2019-02-03T09:12:52.497Z,57.57
2019-02-03T09:15:28.254Z,53.20
2019-02-03T09:17:56.949Z,47.90
2019-02-03T09:20:28.005Z,51.33
2019-02-03T09:22:56.532Z,48.37
2019-02-03T09:25:25.080Z,44.33
2019-02-03T09:27:53.617Z,48.33
2019-02-03T09:30:33.734Z,50.10
2019-02-03T09:33:02.189Z,45.30
2019-02-03T09:35:30.633Z,54.03
2019-02-03T09:37:59.190Z,34.43
2019-02-03T09:40:30.258Z,40.53
2019-02-03T09:42:58.805Z,45.33
2019-02-03T09:45:27.848Z,46.10
2019-02-03T09:47:56.937Z,52.97
2019-02-03T09:50:31.706Z,45.30
2019-02-03T09:53:01.652Z,61.30
2019-02-03T09:55:32.056Z,50.30
2019-02-03T09:58:01.208Z,49.13
2019-02-03T10:00:35.233Z,57.83
2019-02-03T10:03:04.835Z,45.53
2019-02-03T10:05:33.342Z,51.20
2019-02-03T10:08:01.822Z,53.63
2019-02-03T10:10:34.994Z,43.03
2019-02-03T10:13:03.656Z,56.43
2019-02-03T10:15:32.205Z,46.80
2019-02-03T10:18:00.658Z,41.90
2019-02-03T10:20:30.190Z,51.47
2019-02-03T10:22:58.662Z,55.93
2019-02-03T10:25:28.865Z,50.30
2019-02-03T10:27:57.363Z,52.67
2019-02-03T10:30:26.540Z,52.47
2019-02-03T10:32:55.436Z,53.80
2019-02-03T10:35:26.179Z,54.70
2019-02-03T10:37:54.867Z,49.23
2019-02-03T10:40:31.843Z,45.80
2019-02-03T10:43:01.055Z,38.53
2019-02-03T10:45:31.131Z,45.20
2019-02-03T10:47:59.619Z,38.30
2019-02-03T10:50:37.479Z,36.83
2019-02-03T10:53:08.431Z,37.17
2019-02-03T10:55:36.893Z,50.73
2019-02-03T10:58:05.990Z,36.53
2019-02-03T11:00:37.171Z,43.97
2019-02-03T11:03:05.957Z,30.87
2019-02-03T11:05:40.094Z,38.77
2019-02-03T11:08:10.225Z,40.93
2019-02-03T11:10:38.672Z,41.20
2019-02-03T11:13:07.141Z,27.87
2019-02-03T11:15:35.622Z,20.07
2019-02-03T11:18:04.144Z,34.20
2019-02-03T11:20:33.839Z,22.20
2019-02-03T11:23:02.442Z,35.37
2019-02-03T11:25:32.233Z,30.57
2019-02-03T11:28:00.756Z,35.17
2019-02-03T11:30:30.697Z,32.07
2019-02-03T11:33:05.831Z,42.87
2019-02-03T11:35:31.803Z,33.67
2019-02-03T11:38:00.381Z,31.77
2019-02-03T11:40:34.346Z,29.17
2019-02-03T11:43:02.931Z,28.27
2019-02-03T11:45:39.310Z,30.47
2019-02-03T11:48:10.996Z,27.77
2019-02-03T11:50:41.703Z,29.73
2019-02-03T11:53:15.183Z,31.93
2019-02-03T11:55:43.656Z,40.80
2019-02-03T11:58:12.568Z,27.13
2019-02-03T12:00:41.271Z,23.40
2019-02-03T12:03:10.054Z,35.63
2019-02-03T12:05:38.882Z,32.47
2019-02-03T12:08:08.617Z,32.77
2019-02-03T12:10:37.154Z,24.60
2019-02-03T12:13:06.648Z,27.47
2019-02-03T12:15:35.752Z,31.83
2019-02-03T12:18:04.887Z,25.97
2019-02-03T12:20:33.326Z,31.77
2019-02-03T12:23:01.829Z,25.17
2019-02-03T12:25:41.635Z,29.87
2019-02-03T12:28:10.263Z,31.30
2019-02-03T12:30:38.780Z,23.93
2019-02-03T12:33:07.895Z,26.30
2019-02-03T12:35:36.954Z,32.10
2019-02-03T12:38:06.248Z,29.57
2019-02-03T12:40:39.146Z,26.13
2019-02-03T12:43:07.706Z,27.43
2019-02-03T12:45:36.401Z,33.13
2019-02-03T12:48:06.395Z,34.17
2019-02-03T12:50:34.875Z,25.37
2019-02-03T12:53:03.338Z,27.17
2019-02-03T12:55:32.549Z,24.80
2019-02-03T12:58:01.029Z,11.17
2019-02-03T13:00:35.195Z,31.20
2019-02-03T13:03:04.278Z,23.03
2019-02-03T13:05:32.780Z,23.13
2019-02-03T13:08:01.714Z,23.77
2019-02-03T13:10:40.266Z,29.27
2019-02-03T13:13:09.461Z,30.40
2019-02-03T13:15:46.806Z,26.00
2019-02-03T13:18:15.273Z,26.87
2019-02-03T13:20:43.895Z,23.20
2019-02-03T13:23:12.544Z,32.10
2019-02-03T13:25:41.188Z,23.70
2019-02-03T13:28:09.651Z,24.73
2019-02-03T13:30:40.930Z,26.83
2019-02-03T13:33:10.527Z,27.30
2019-02-03T13:35:38.977Z,27.43
2019-02-03T13:38:07.679Z,23.70
2019-02-03T13:40:36.137Z,28.37
2019-02-03T13:43:04.944Z,26.27
2019-02-03T13:45:33.440Z,23.83
2019-02-03T13:48:01.956Z,25.40
2019-02-03T13:50:30.586Z,22.40
2019-02-03T13:52:59.164Z,27.20
2019-02-03T13:55:28.097Z,28.13
2019-02-03T13:57:57.238Z,21.93
2019-02-03T14:00:34.491Z,27.23
2019-02-03T14:03:02.949Z,18.43
2019-02-03T14:05:31.432Z,27.50
2019-02-03T14:07:59.913Z,28.07
2019-02-03T14:10:33.787Z,26.10
2019-02-03T14:13:02.485Z,25.13
2019-02-03T14:15:31.046Z,30.07
2019-02-03T14:17:59.564Z,36.97
2019-02-03T14:20:30.531Z,26.03
2019-02-03T14:22:59.351Z,23.13
2019-02-03T14:25:28.252Z,28.43
2019-02-03T14:27:56.732Z,29.63
2019-02-03T14:30:40.519Z,21.90
2019-02-03T14:33:05.050Z,27.40
2019-02-03T14:35:34.195Z,26.47
2019-02-03T14:38:03.393Z,25.07
2019-02-03T14:40:31.861Z,26.57
2019-02-03T14:43:02.211Z,26.57
2019-02-03T14:45:30.679Z,24.33
2019-02-03T14:47:59.148Z,21.50
2019-02-03T14:50:27.776Z,23.90
2019-02-03T14:53:02.587Z,29.63
2019-02-03T14:55:33.939Z,28.47
2019-02-03T14:58:02.405Z,32.50
2019-02-03T15:00:33.975Z,14.67
2019-02-03T15:03:04.088Z,23.20
2019-02-03T15:05:32.549Z,24.83
2019-02-03T15:08:01.115Z,26.00
2019-02-03T15:10:30.367Z,31.67
2019-02-03T15:12:59.175Z,23.77
2019-02-03T15:15:29.393Z,25.67
2019-02-03T15:17:58.226Z,27.83
2019-02-03T15:20:28.330Z,22.50
2019-02-03T15:22:56.887Z,26.97
2019-02-03T15:25:25.409Z,29.57
2019-02-03T15:27:54.055Z,23.80
2019-02-03T15:30:37.680Z,19.43
2019-02-03T15:33:06.213Z,29.33
2019-02-03T15:35:34.668Z,24.73
2019-02-03T15:38:03.163Z,24.93
2019-02-03T15:40:31.708Z,26.60
2019-02-03T15:43:00.535Z,19.10
2019-02-03T15:45:29.103Z,24.43
2019-02-03T15:47:57.568Z,23.00
2019-02-03T15:50:27.756Z,26.13
2019-02-03T15:52:56.380Z,20.53
2019-02-03T15:55:27.083Z,21.03
2019-02-03T15:57:55.612Z,32.03
2019-02-03T16:00:30.094Z,26.23
2019-02-03T16:02:59.679Z,19.43
2019-02-03T16:05:28.145Z,17.80
2019-02-03T16:07:56.701Z,20.17
2019-02-03T16:10:28.133Z,21.60
2019-02-03T16:12:56.581Z,15.77
2019-02-03T16:15:25.132Z,17.17
2019-02-03T16:17:53.718Z,15.47
2019-02-03T16:20:30.155Z,16.10
2019-02-03T16:23:00.330Z,17.50
2019-02-03T16:25:29.138Z,18.03
2019-02-03T16:27:57.698Z,20.30
2019-02-03T16:30:29.355Z,20.17
2019-02-03T16:32:58.173Z,18.07
2019-02-03T16:35:26.663Z,22.33
2019-02-03T16:37:55.190Z,17.00
2019-02-03T16:40:25.989Z,17.00
2019-02-03T16:42:54.490Z,23.50
2019-02-03T16:45:23.079Z,20.47
2019-02-03T16:47:52.085Z,18.47
2019-02-03T16:50:29.403Z,16.70
2019-02-03T16:52:59.100Z,19.77
2019-02-03T16:55:27.721Z,15.00
2019-02-03T16:57:56.192Z,15.07
2019-02-03T17:00:27.721Z,21.47
2019-02-03T17:02:56.172Z,13.90
2019-02-03T17:05:30.499Z,14.07
2019-02-03T17:08:00.729Z,5.97
2019-02-03T17:10:29.382Z,17.97
2019-02-03T17:12:57.887Z,12.60
2019-02-03T17:15:35.018Z,15.10
2019-02-03T17:18:03.631Z,23.23
2019-02-03T17:20:32.330Z,16.33
2019-02-03T17:23:00.784Z,12.10
2019-02-03T17:25:35.236Z,11.23
2019-02-03T17:28:03.771Z,9.13
2019-02-03T17:30:35.416Z,14.73
2019-02-03T17:33:05.538Z,14.77
2019-02-03T17:35:34.355Z,14.30
2019-02-03T17:38:02.821Z,24.13
2019-02-03T17:40:31.585Z,12.73
2019-02-03T17:43:00.068Z,14.73
2019-02-03T17:45:28.712Z,11.47
2019-02-03T17:47:57.482Z,15.13
2019-02-03T17:50:28.421Z,14.20
2019-02-03T17:52:56.882Z,8.87
2019-02-03T17:55:25.465Z,13.40
2019-02-03T17:57:53.940Z,18.87
2019-02-03T18:00:44.022Z,12.63
2019-02-03T18:03:12.481Z,12.40
2019-02-03T18:05:41.007Z,9.20
2019-02-03T18:08:10.831Z,8.67
2019-02-03T18:10:39.370Z,11.73
2019-02-03T18:13:08.385Z,9.07
2019-02-03T18:15:37.142Z,15.70
2019-02-03T18:18:07.429Z,13.63
2019-02-03T18:20:36.033Z,17.57
2019-02-03T18:23:05.551Z,16.67
2019-02-03T18:25:34.009Z,13.70
2019-02-03T18:28:02.621Z,14.40
2019-02-03T18:30:32.853Z,11.57
2019-02-03T18:33:01.639Z,17.10
2019-02-03T18:35:30.119Z,12.40
2019-02-03T18:38:04.541Z,14.17
2019-02-03T18:40:32.995Z,16.30
2019-02-03T18:43:02.086Z,11.50
2019-02-03T18:45:30.906Z,14.37
2019-02-03T18:47:59.443Z,16.12
2019-02-03T18:50:27.911Z,11.63
2019-02-03T18:52:56.405Z,15.80
2019-02-03T18:55:33.607Z,11.17
2019-02-03T18:58:02.130Z,11.80
2019-02-03T19:00:33.126Z,13.07
2019-02-03T19:03:01.663Z,22.23
2019-02-03T19:05:32.876Z,10.77
2019-02-03T19:08:01.400Z,11.83
2019-02-03T19:10:32.672Z,9.27
2019-02-03T19:13:00.302Z,10.00
2019-02-03T19:15:31.394Z,11.17
2019-02-03T19:18:00.229Z,7.63
2019-02-03T19:20:37.739Z,6.60
2019-02-03T19:23:07.627Z,11.50
2019-02-03T19:25:36.181Z,10.57
2019-02-03T19:28:05.013Z,5.73
2019-02-03T19:30:33.843Z,7.93
2019-02-03T19:33:02.295Z,13.30
2019-02-03T19:35:32.206Z,12.90
2019-02-03T19:38:00.662Z,5.07
2019-02-03T19:40:33.320Z,11.80
2019-02-03T19:43:01.814Z,7.10
2019-02-03T19:45:31.616Z,5.70
2019-02-03T19:48:00.372Z,11.40
2019-02-03T19:50:30.925Z,8.77
2019-02-03T19:52:59.447Z,7.27
2019-02-03T19:55:28.051Z,9.10
2019-02-03T19:57:56.516Z,11.10
2019-02-03T20:00:30.599Z,16.43
2019-02-03T20:02:59.127Z,8.13
2019-02-03T20:05:27.687Z,7.93
2019-02-03T20:07:56.146Z,14.03
2019-02-03T20:10:29.496Z,9.43
2019-02-03T20:12:58.364Z,8.30
2019-02-03T20:15:26.885Z,8.73
2019-02-03T20:17:57.947Z,9.07
2019-02-03T20:20:31.023Z,5.93
2019-02-03T20:22:59.475Z,5.30
2019-02-03T20:25:28.261Z,7.47
2019-02-03T20:27:56.733Z,3.97
2019-02-03T20:30:38.164Z,6.10
2019-02-03T20:32:57.057Z,7.57
2019-02-03T20:35:27.982Z,5.87
2019-02-03T20:37:56.434Z,8.10
2019-02-03T20:40:33.758Z,6.80
2019-02-03T20:43:02.212Z,10.00
2019-02-03T20:45:31.335Z,6.73
2019-02-03T20:47:59.986Z,12.67
2019-02-03T20:50:28.494Z,5.43
2019-02-03T20:52:57.382Z,7.83
2019-02-03T20:55:25.948Z,6.80
2019-02-03T20:57:54.463Z,8.90
2019-02-03T21:00:28.625Z,5.23
2019-02-03T21:02:57.113Z,8.20
2019-02-03T21:05:25.723Z,11.13
2019-02-03T21:07:54.239Z,7.20
2019-02-03T21:10:24.081Z,7.70
2019-02-03T21:12:52.529Z,5.00
2019-02-03T21:15:33.128Z,9.43
2019-02-03T21:17:56.663Z,8.90
2019-02-03T21:20:34.251Z,7.70
2019-02-03T21:23:02.761Z,8.13
2019-02-03T21:25:31.838Z,6.20
2019-02-03T21:28:00.291Z,7.23
2019-02-03T21:30:34.329Z,11.90
2019-02-03T21:33:03.127Z,8.40
2019-02-03T21:35:31.574Z,6.50
2019-02-03T21:38:00.122Z,7.53
2019-02-03T21:40:30.310Z,7.00
2019-02-03T21:42:58.932Z,10.13
2019-02-03T21:45:27.570Z,8.43
2019-02-03T21:47:56.020Z,8.53
2019-02-03T21:50:29.848Z,12.00
2019-02-03T21:52:58.441Z,6.27
2019-02-03T21:55:27.056Z,9.97
2019-02-03T21:57:55.880Z,13.53
2019-02-03T22:00:32.076Z,14.60
2019-02-03T22:03:00.672Z,17.50
2019-02-03T22:05:29.962Z,9.73
2019-02-03T22:07:58.542Z,14.30
2019-02-03T22:10:35.214Z,10.17
2019-02-03T22:13:04.142Z,8.57
2019-02-03T22:15:32.682Z,11.87
2019-02-03T22:18:01.197Z,10.17
2019-02-03T22:20:29.757Z,14.60
2019-02-03T22:22:58.204Z,12.30
2019-02-03T22:25:26.658Z,14.53
2019-02-03T22:27:55.215Z,9.50
2019-02-03T22:30:26.843Z,10.90
2019-02-03T22:32:55.459Z,14.03
2019-02-03T22:35:24.033Z,11.68
2019-02-03T22:37:52.642Z,12.65
2019-02-03T22:40:21.697Z,12.53
2019-02-03T22:42:50.204Z,10.90
2019-02-03T22:45:22.901Z,11.15
2019-02-03T22:47:51.442Z,9.10
2019-02-03T22:50:27.896Z,19.82
2019-02-03T22:52:57.039Z,14.75
2019-02-03T22:55:25.506Z,13.30
2019-02-03T22:57:54.086Z,16.17
2019-02-03T23:00:27.449Z,13.18
2019-02-03T23:02:55.989Z,16.10
2019-02-03T23:05:24.601Z,16.05
2019-02-03T23:07:53.059Z,17.20
2019-02-03T23:10:21.523Z,14.33
2019-02-03T23:12:50.174Z,18.07
2019-02-03T23:15:19.474Z,14.35
2019-02-03T23:17:47.941Z,16.97
2019-02-03T23:20:16.511Z,13.50
2019-02-03T23:22:44.979Z,14.07
2019-02-03T23:25:13.520Z,13.68
2019-02-03T23:27:42.021Z,12.90
2019-02-03T23:30:13.875Z,10.40
2019-02-03T23:32:42.563Z,11.43
2019-02-03T23:35:11.106Z,11.30
2019-02-03T23:37:39.641Z,13.68
2019-02-03T23:40:13.206Z,9.90
2019-02-03T23:42:41.790Z,14.45
2019-02-03T23:45:12.840Z,12.20
2019-02-03T23:47:41.375Z,12.47
2019-02-03T23:50:20.711Z,14.15
2019-02-03T23:52:49.249Z,11.80
2019-02-03T23:55:17.862Z,12.18
2019-02-03T23:57:46.445Z,20.10
